createdAt,value
2023-02-23T00:00:29.265Z,19.57
2023-02-23T00:03:01.167Z,18.20
2023-02-23T00:05:30.517Z,18.93
2023-02-23T00:07:59.048Z,18.93
2023-02-23T00:10:30.405Z,19.13
2023-02-23T00:12:59.530Z,18.93
2023-02-23T00:15:27.995Z,19.70
2023-02-23T00:17:56.554Z,18.30
2023-02-23T00:20:27.603Z,18.13
2023-02-23T00:22:56.526Z,18.90
2023-02-23T00:25:25.393Z,19.00
2023-02-23T00:27:54.799Z,18.20
2023-02-23T00:30:24.548Z,19.80
2023-02-23T00:32:53.448Z,18.50
2023-02-23T00:35:22.001Z,19.30
2023-02-23T00:37:51.579Z,19.37
2023-02-23T00:40:23.047Z,19.00
2023-02-23T00:42:52.865Z,20.97
2023-02-23T00:45:21.496Z,19.53
2023-02-23T00:47:49.702Z,19.37
2023-02-23T00:50:18.491Z,18.97
2023-02-23T00:52:47.800Z,18.90
2023-02-23T00:55:17.601Z,19.40
2023-02-23T00:57:45.730Z,19.83
2023-02-23T01:00:20.801Z,19.60
2023-02-23T01:02:49.907Z,19.30
2023-02-23T01:05:18.365Z,18.93
2023-02-23T01:07:47.424Z,19.37
2023-02-23T01:10:20.535Z,18.67
2023-02-23T01:12:50.219Z,19.77
2023-02-23T01:15:19.101Z,18.77
2023-02-23T01:17:47.783Z,19.77
2023-02-23T01:20:19.194Z,19.43
2023-02-23T01:22:48.676Z,19.70
2023-02-23T01:25:18.500Z,19.47
2023-02-23T01:27:46.796Z,20.50
2023-02-23T01:30:16.107Z,20.93
2023-02-23T01:32:45.817Z,19.33
2023-02-23T01:35:14.023Z,19.73
2023-02-23T01:37:43.529Z,19.93
2023-02-23T01:40:15.591Z,20.23
2023-02-23T01:42:46.942Z,20.10
2023-02-23T01:45:30.200Z,19.87
2023-02-23T01:48:01.920Z,18.13
2023-02-23T01:50:36.036Z,19.83
2023-02-23T01:53:04.266Z,19.60
2023-02-23T01:55:32.554Z,19.50
2023-02-23T01:58:15.137Z,19.00
2023-02-23T02:00:47.411Z,20.83
2023-02-23T02:03:22.673Z,19.30
2023-02-23T02:05:51.554Z,19.93
2023-02-23T02:08:19.989Z,19.17
2023-02-23T02:10:48.212Z,19.23
2023-02-23T02:13:21.622Z,20.43
2023-02-23T02:16:29.101Z,18.70
2023-02-23T02:19:18.713Z,19.23
2023-02-23T02:22:45.833Z,19.70
2023-02-23T02:25:35.666Z,18.13
2023-02-23T02:28:42.206Z,18.97
2023-02-23T02:31:55.376Z,19.17
2023-02-23T02:35:08.457Z,18.93
2023-02-23T02:37:50.572Z,18.73
2023-02-23T02:40:22.661Z,18.57
2023-02-23T02:43:08.851Z,18.07
2023-02-23T02:45:45.331Z,18.37
2023-02-23T02:48:20.749Z,18.33
2023-02-23T02:50:53.284Z,18.43
2023-02-23T02:53:28.129Z,18.70
2023-02-23T02:55:57.084Z,18.63
2023-02-23T02:58:26.237Z,19.10
2023-02-23T03:01:12.012Z,17.83
2023-02-23T03:03:59.503Z,19.13
2023-02-23T03:06:48.570Z,17.90
2023-02-23T03:09:49.126Z,18.67
2023-02-23T03:12:43.050Z,17.57
2023-02-23T03:15:40.096Z,17.63
2023-02-23T03:18:34.858Z,18.00
2023-02-23T03:21:24.434Z,17.10
2023-02-23T03:24:15.067Z,17.77
2023-02-23T03:27:04.445Z,18.70
2023-02-23T03:29:51.849Z,18.67
2023-02-23T03:32:41.427Z,17.23
2023-02-23T03:35:31.376Z,18.20
2023-02-23T03:38:22.598Z,17.33
2023-02-23T03:41:08.632Z,15.70
2023-02-23T03:43:59.431Z,16.90
2023-02-23T03:46:45.379Z,16.47
2023-02-23T03:49:31.237Z,17.20
2023-02-23T03:52:21.930Z,18.07
2023-02-23T03:55:12.385Z,17.03
2023-02-23T03:57:58.182Z,17.00
2023-02-23T04:00:48.385Z,16.87
2023-02-23T04:03:34.772Z,16.67
2023-02-23T04:06:20.684Z,17.13
2023-02-23T04:09:06.644Z,15.97
2023-02-23T04:11:56.631Z,15.93
2023-02-23T04:14:26.865Z,15.73
2023-02-23T04:16:55.303Z,17.53
2023-02-23T04:19:23.465Z,16.37
2023-02-23T04:21:51.742Z,15.20
2023-02-23T04:24:19.871Z,15.97
2023-02-23T04:26:48.041Z,16.73
2023-02-23T04:29:16.385Z,17.33
2023-02-23T04:31:44.672Z,18.33
2023-02-23T04:34:14.332Z,17.83
2023-02-23T04:36:42.678Z,18.40
2023-02-23T04:39:10.835Z,18.73
2023-02-23T04:41:39.033Z,20.00
2023-02-23T04:44:07.180Z,19.83
2023-02-23T04:46:35.357Z,21.10
2023-02-23T04:49:03.765Z,21.00
2023-02-23T04:51:33.993Z,21.83
2023-02-23T04:54:02.582Z,21.23
2023-02-23T04:56:30.823Z,21.67
2023-02-23T04:58:58.964Z,21.93
2023-02-23T05:01:27.145Z,22.37
2023-02-23T05:03:56.304Z,23.30
2023-02-23T05:06:24.441Z,21.67
2023-02-23T05:08:53.907Z,20.93
2023-02-23T05:11:22.102Z,21.57
2023-02-23T05:13:50.341Z,21.70
2023-02-23T05:16:18.530Z,20.87
2023-02-23T05:18:46.680Z,21.13
2023-02-23T05:21:14.932Z,22.43
2023-02-23T05:23:43.031Z,21.37
2023-02-23T05:26:13.285Z,21.00
2023-02-23T05:28:43.222Z,21.20
2023-02-23T05:31:13.526Z,21.93
2023-02-23T05:33:43.130Z,21.03
2023-02-23T05:36:12.312Z,21.00
2023-02-23T05:38:40.739Z,21.43
2023-02-23T05:41:09.335Z,21.10
2023-02-23T05:43:39.042Z,19.53
2023-02-23T05:46:08.460Z,20.33
2023-02-23T05:48:37.037Z,21.50
2023-02-23T05:51:06.904Z,20.07
2023-02-23T05:53:35.276Z,21.20
2023-02-23T05:56:03.599Z,21.03
2023-02-23T05:58:31.781Z,21.90
2023-02-23T06:01:01.272Z,20.67
2023-02-23T06:03:29.480Z,22.27
2023-02-23T06:05:58.852Z,22.47
2023-02-23T06:08:27.328Z,20.63
2023-02-23T06:10:55.485Z,21.67
2023-02-23T06:13:23.641Z,21.53
2023-02-23T06:15:51.884Z,21.20
2023-02-23T06:18:21.711Z,20.67
2023-02-23T06:20:49.860Z,21.67
2023-02-23T06:23:18.045Z,21.33
2023-02-23T06:25:46.959Z,21.83
2023-02-23T06:28:15.277Z,21.13
2023-02-23T06:30:43.824Z,21.73
2023-02-23T06:33:12.039Z,21.70
2023-02-23T06:35:41.651Z,22.43
2023-02-23T06:38:09.770Z,21.63
2023-02-23T06:40:39.291Z,21.43
2023-02-23T06:43:07.489Z,21.93
2023-02-23T06:45:35.605Z,22.80
2023-02-23T06:48:04.010Z,20.80
2023-02-23T06:50:32.367Z,22.60
2023-02-23T06:53:02.191Z,20.73
2023-02-23T06:55:30.391Z,20.97
2023-02-23T06:57:58.954Z,20.57
2023-02-23T07:00:27.329Z,21.50
2023-02-23T07:02:56.069Z,21.17
2023-02-23T07:05:24.356Z,21.07
2023-02-23T07:07:52.999Z,21.87
2023-02-23T07:10:22.538Z,20.20
2023-02-23T07:12:50.689Z,21.47
2023-02-23T07:15:20.247Z,21.53
2023-02-23T07:17:49.335Z,20.80
2023-02-23T07:20:17.646Z,20.83
2023-02-23T07:22:45.923Z,20.57
2023-02-23T07:25:15.837Z,21.07
2023-02-23T07:27:45.498Z,21.40
2023-02-23T07:30:14.769Z,20.90
2023-02-23T07:33:01.592Z,19.33
2023-02-23T07:35:50.737Z,21.67
2023-02-23T07:38:39.176Z,21.20
2023-02-23T07:41:27.686Z,22.47
2023-02-23T07:44:17.817Z,21.23
2023-02-23T07:47:04.997Z,20.27
2023-02-23T07:49:33.839Z,20.83
2023-02-23T07:52:02.017Z,20.60
2023-02-23T07:54:30.117Z,18.33
2023-02-23T07:56:59.262Z,20.47
2023-02-23T07:59:28.751Z,19.20
2023-02-23T08:01:56.905Z,18.93
2023-02-23T08:04:25.058Z,19.90
2023-02-23T08:06:53.241Z,18.83
2023-02-23T08:09:21.373Z,18.73
2023-02-23T08:11:49.476Z,19.03
2023-02-23T08:14:21.854Z,20.73
2023-02-23T08:16:51.796Z,21.40
2023-02-23T08:19:22.828Z,21.50
2023-02-23T08:21:51.052Z,19.73
2023-02-23T08:24:19.185Z,20.03
2023-02-23T08:26:47.420Z,20.53
2023-02-23T08:29:15.531Z,19.73
2023-02-23T08:31:43.822Z,20.37
2023-02-23T08:34:13.416Z,20.53
2023-02-23T08:36:45.684Z,19.70
2023-02-23T08:39:14.563Z,20.03
2023-02-23T08:41:42.813Z,19.17
2023-02-23T08:44:10.939Z,21.13
2023-02-23T08:46:39.020Z,20.00
2023-02-23T08:49:10.638Z,20.13
2023-02-23T08:51:40.781Z,19.27
2023-02-23T08:54:14.177Z,19.50
2023-02-23T08:56:42.934Z,20.13
2023-02-23T08:59:11.804Z,21.03
2023-02-23T09:04:41.020Z,19.67
2023-02-23T09:07:16.267Z,19.47
2023-02-23T09:09:50.172Z,19.83
2023-02-23T09:12:28.457Z,20.00
2023-02-23T09:15:03.966Z,19.87
2023-02-23T09:20:28.175Z,20.00
2023-02-23T09:23:01.250Z,20.00
2023-02-23T09:28:31.496Z,19.80
2023-02-23T09:31:00.317Z,19.77
2023-02-23T09:33:29.353Z,19.93
2023-02-23T09:35:57.823Z,18.97
2023-02-23T09:38:27.742Z,20.60
2023-02-23T09:40:56.323Z,18.73
2023-02-23T09:43:28.366Z,18.97
2023-02-23T09:46:03.703Z,20.43
2023-02-23T09:48:32.069Z,20.50
2023-02-23T09:51:00.378Z,19.57
2023-02-23T09:53:37.282Z,20.03
2023-02-23T09:56:10.632Z,19.80
2023-02-23T09:58:39.100Z,19.10
2023-02-23T10:01:45.958Z,19.13
2023-02-23T10:04:18.927Z,19.03
2023-02-23T10:06:51.515Z,20.20
2023-02-23T10:09:28.020Z,20.93
2023-02-23T10:12:01.954Z,19.93
2023-02-23T10:14:53.006Z,20.57
2023-02-23T10:17:34.243Z,20.13
2023-02-23T10:20:09.577Z,19.87
2023-02-23T10:22:38.107Z,20.60
2023-02-23T10:25:11.301Z,18.60
2023-02-23T10:27:42.098Z,17.93
2023-02-23T10:30:20.029Z,18.77
2023-02-23T10:32:54.409Z,17.53
2023-02-23T10:35:24.469Z,18.03
2023-02-23T10:38:42.321Z,17.40
2023-02-23T10:41:23.477Z,16.40
2023-02-23T10:44:41.080Z,15.67
2023-02-23T10:47:15.574Z,15.17
2023-02-23T10:49:48.558Z,14.40
2023-02-23T10:52:22.839Z,15.07
2023-02-23T10:54:52.108Z,15.27
2023-02-23T10:57:27.887Z,17.50
2023-02-23T11:00:32.949Z,17.10
2023-02-23T11:03:03.352Z,15.83
2023-02-23T11:05:45.559Z,15.17
2023-02-23T11:08:22.285Z,12.53
2023-02-23T11:11:09.420Z,10.73
2023-02-23T11:13:41.628Z,9.90
2023-02-23T11:16:13.314Z,11.43
2023-02-23T11:18:43.393Z,11.47
2023-02-23T11:21:13.605Z,11.27
2023-02-23T11:23:42.110Z,10.70
2023-02-23T11:26:25.006Z,10.30
2023-02-23T11:28:56.658Z,11.20
2023-02-23T11:31:30.831Z,10.40
2023-02-23T11:33:59.095Z,10.23
2023-02-23T11:36:29.605Z,10.93
2023-02-23T11:39:21.948Z,10.70
2023-02-23T11:42:05.916Z,10.00
2023-02-23T11:44:35.753Z,10.80
2023-02-23T11:47:04.507Z,9.67
2023-02-23T11:49:35.096Z,9.47
2023-02-23T11:52:03.771Z,9.43
2023-02-23T11:54:33.819Z,9.30
2023-02-23T11:57:03.376Z,9.90
2023-02-23T11:59:34.391Z,9.00
2023-02-23T12:02:28.056Z,10.00
2023-02-23T12:05:06.397Z,10.03
2023-02-23T12:07:41.484Z,10.17
2023-02-23T12:10:17.508Z,9.53
2023-02-23T12:12:55.063Z,8.87
2023-02-23T12:15:35.847Z,9.50
2023-02-23T12:18:10.092Z,8.47
2023-02-23T12:20:40.704Z,9.93
2023-02-23T12:23:11.409Z,9.23
2023-02-23T12:25:48.215Z,8.93
2023-02-23T12:28:23.547Z,8.73
2023-02-23T12:30:55.166Z,8.73
2023-02-23T12:33:31.673Z,8.80
2023-02-23T12:36:13.928Z,8.67
2023-02-23T12:38:50.320Z,8.30
2023-02-23T12:41:34.852Z,6.80
2023-02-23T12:44:13.468Z,6.63
2023-02-23T12:46:47.525Z,6.93
2023-02-23T12:49:21.690Z,7.03
2023-02-23T12:51:52.511Z,7.30
2023-02-23T12:54:21.119Z,7.03
2023-02-23T12:56:57.516Z,6.87
2023-02-23T12:59:51.731Z,7.30
2023-02-23T13:02:24.319Z,7.17
2023-02-23T13:05:17.556Z,6.97
2023-02-23T13:08:04.827Z,7.07
2023-02-23T13:10:47.075Z,7.40
2023-02-23T13:13:25.741Z,7.07
2023-02-23T13:16:02.433Z,7.73
2023-02-23T13:18:34.195Z,7.50
2023-02-23T13:21:09.510Z,6.97
2023-02-23T13:23:43.602Z,7.53
2023-02-23T13:26:21.864Z,7.53
2023-02-23T13:28:56.616Z,7.50
2023-02-23T13:31:29.411Z,6.87
2023-02-23T13:34:08.381Z,7.33
2023-02-23T13:36:56.560Z,6.60
2023-02-23T13:39:50.612Z,7.10
2023-02-23T13:42:33.764Z,6.67
2023-02-23T13:45:22.698Z,6.40
2023-02-23T13:48:00.362Z,5.33
2023-02-23T13:50:32.712Z,5.70
2023-02-23T13:53:06.500Z,5.40
2023-02-23T13:55:51.703Z,5.23
2023-02-23T13:58:24.136Z,5.30
2023-02-23T14:01:05.297Z,5.30
2023-02-23T14:03:36.851Z,5.60
2023-02-23T14:06:06.641Z,5.30
2023-02-23T14:08:37.950Z,5.07
2023-02-23T14:11:06.912Z,4.40
2023-02-23T14:13:35.884Z,5.10
2023-02-23T14:16:15.341Z,4.73
2023-02-23T14:19:12.962Z,4.10
2023-02-23T14:22:00.308Z,4.27
2023-02-23T14:24:30.619Z,3.97
2023-02-23T14:27:41.556Z,4.00
2023-02-23T14:30:25.319Z,4.00
2023-02-23T14:32:55.309Z,4.00
2023-02-23T14:35:44.893Z,4.07
2023-02-23T14:38:29.974Z,4.30
2023-02-23T14:41:03.603Z,3.97
2023-02-23T14:43:43.966Z,3.90
2023-02-23T14:46:20.951Z,4.00
2023-02-23T14:49:03.031Z,3.87
2023-02-23T14:51:42.068Z,4.53
2023-02-23T14:54:22.627Z,4.03
2023-02-23T14:56:53.737Z,4.60
2023-02-23T14:59:23.026Z,4.57
2023-02-23T15:01:51.840Z,4.50
2023-02-23T15:04:22.606Z,4.70
2023-02-23T15:06:50.918Z,4.37
2023-02-23T15:09:21.488Z,4.40
2023-02-23T15:11:54.103Z,4.17
2023-02-23T15:14:27.967Z,4.47
2023-02-23T15:16:56.952Z,4.50
2023-02-23T15:19:25.179Z,4.50
2023-02-23T15:21:54.202Z,4.07
2023-02-23T15:24:27.388Z,4.70
2023-02-23T15:26:57.225Z,4.57
2023-02-23T15:29:26.764Z,4.93
2023-02-23T15:31:57.921Z,4.80
2023-02-23T15:34:30.424Z,4.30
2023-02-23T15:36:59.607Z,4.27
2023-02-23T15:39:35.472Z,4.60
2023-02-23T15:42:05.258Z,4.67
2023-02-23T15:44:42.623Z,4.03
2023-02-23T15:47:22.092Z,4.33
2023-02-23T15:49:51.063Z,4.57
2023-02-23T15:52:21.684Z,4.17
2023-02-23T15:54:56.784Z,4.50
2023-02-23T15:57:31.357Z,4.83
2023-02-23T15:59:59.889Z,4.43
2023-02-23T16:02:28.105Z,4.97
2023-02-23T16:04:57.609Z,5.47
2023-02-23T16:07:27.336Z,5.27
2023-02-23T16:09:56.537Z,4.90
2023-02-23T16:12:26.102Z,4.60
2023-02-23T16:14:56.640Z,4.93
2023-02-23T16:17:30.018Z,5.33
2023-02-23T16:20:12.973Z,5.10
2023-02-23T16:22:41.208Z,5.83
2023-02-23T16:25:13.170Z,5.70
2023-02-23T16:27:41.366Z,5.80
2023-02-23T16:30:23.324Z,5.97
2023-02-23T16:33:03.780Z,5.53
2023-02-23T16:35:36.156Z,5.07
2023-02-23T16:38:05.137Z,5.47
2023-02-23T16:40:33.710Z,5.50
2023-02-23T16:43:02.760Z,5.00
2023-02-23T16:45:32.798Z,5.10
2023-02-23T16:48:03.354Z,4.73
2023-02-23T16:50:33.504Z,4.70
2023-02-23T16:53:03.407Z,5.23
2023-02-23T16:55:37.266Z,5.10
2023-02-23T16:58:05.688Z,4.87
2023-02-23T17:00:35.455Z,5.20
2023-02-23T17:03:05.605Z,4.77
2023-02-23T17:05:34.075Z,5.17
2023-02-23T17:08:02.865Z,4.40
2023-02-23T17:10:32.924Z,5.07
2023-02-23T17:13:04.957Z,5.20
2023-02-23T17:15:36.565Z,4.63
2023-02-23T17:18:05.360Z,4.50
2023-02-23T17:20:33.679Z,4.57
2023-02-23T17:23:02.854Z,4.83
2023-02-23T17:25:31.694Z,4.40
2023-02-23T17:28:00.316Z,4.20
2023-02-23T17:30:29.427Z,4.60
2023-02-23T17:32:59.513Z,4.50
2023-02-23T17:35:27.840Z,4.70
2023-02-23T17:37:56.121Z,6.47
2023-02-23T17:40:28.918Z,5.50
2023-02-23T17:42:58.131Z,4.47
2023-02-23T17:45:26.431Z,5.00
2023-02-23T17:47:54.761Z,4.67
2023-02-23T17:50:26.993Z,5.70
2023-02-23T17:52:55.698Z,4.87
2023-02-23T17:55:24.068Z,4.80
2023-02-23T17:57:52.396Z,5.30
2023-02-23T18:00:22.015Z,5.50
2023-02-23T18:02:50.245Z,5.07
2023-02-23T18:05:18.746Z,4.93
2023-02-23T18:07:48.907Z,5.50
2023-02-23T18:10:17.649Z,5.00
2023-02-23T18:12:45.988Z,5.60
2023-02-23T18:15:14.229Z,5.50
2023-02-23T18:17:42.754Z,5.40
2023-02-23T18:20:16.151Z,5.47
2023-02-23T18:22:44.639Z,5.50
2023-02-23T18:25:22.344Z,7.77
2023-02-23T18:27:53.827Z,8.83
2023-02-23T18:30:23.435Z,6.80
2023-02-23T18:32:52.485Z,8.23
2023-02-23T18:35:20.870Z,7.60
2023-02-23T18:37:49.894Z,6.83
2023-02-23T18:40:24.117Z,6.50
2023-02-23T18:42:53.893Z,9.77
2023-02-23T18:45:22.158Z,7.50
2023-02-23T18:47:51.444Z,5.63
2023-02-23T18:50:20.051Z,5.20
2023-02-23T18:52:48.913Z,4.80
2023-02-23T18:55:17.534Z,4.90
2023-02-23T18:57:46.112Z,5.27
2023-02-23T19:00:17.042Z,5.47
2023-02-23T19:02:46.369Z,5.33
2023-02-23T19:05:15.647Z,6.00
2023-02-23T19:07:44.111Z,5.73
2023-02-23T19:10:14.914Z,5.50
2023-02-23T19:12:43.372Z,6.70
2023-02-23T19:15:12.331Z,7.13
2023-02-23T19:17:41.989Z,6.87
2023-02-23T19:20:14.864Z,6.23
2023-02-23T19:22:43.169Z,6.43
2023-02-23T19:25:15.346Z,6.00
2023-02-23T19:27:43.864Z,5.97
2023-02-23T19:30:14.625Z,6.20
2023-02-23T19:32:44.976Z,5.80
2023-02-23T19:35:15.304Z,5.57
2023-02-23T19:37:51.119Z,6.23
2023-02-23T19:46:11.564Z,5.67
2023-02-23T19:48:41.054Z,6.17
2023-02-23T19:51:11.644Z,5.97
2023-02-23T19:53:39.852Z,6.30
2023-02-23T19:56:09.660Z,6.57
2023-02-23T19:58:37.789Z,8.10
2023-02-23T20:01:06.624Z,7.37
2023-02-23T20:03:35.642Z,7.23
2023-02-23T20:06:07.667Z,6.83
2023-02-23T20:08:35.783Z,7.23
2023-02-23T20:11:06.234Z,6.87
2023-02-23T20:13:34.449Z,7.33
2023-02-23T20:16:03.494Z,7.10
2023-02-23T20:18:33.337Z,6.90
2023-02-23T20:21:01.549Z,8.40
2023-02-23T20:23:31.016Z,8.47
2023-02-23T20:25:59.173Z,7.60
2023-02-23T20:28:27.410Z,7.93
2023-02-23T20:30:55.524Z,8.27
2023-02-23T20:33:23.894Z,8.90
2023-02-23T20:35:52.039Z,9.50
2023-02-23T20:38:22.460Z,8.67
2023-02-23T20:40:52.439Z,9.30
2023-02-23T20:43:20.603Z,12.60
2023-02-23T20:45:48.767Z,11.77
2023-02-23T20:48:17.481Z,10.67
2023-02-23T20:50:45.622Z,9.73
2023-02-23T20:53:13.759Z,8.80
2023-02-23T20:55:42.148Z,9.43
2023-02-23T20:58:11.792Z,8.97
2023-02-23T21:00:39.870Z,9.90
2023-02-23T21:03:07.949Z,9.63
2023-02-23T21:05:40.199Z,8.80
2023-02-23T21:08:08.762Z,9.90
2023-02-23T21:10:38.811Z,8.27
2023-02-23T21:13:07.541Z,8.07
2023-02-23T21:15:37.113Z,8.57
2023-02-23T21:18:05.669Z,9.10
2023-02-23T21:20:34.341Z,8.97
2023-02-23T21:23:04.397Z,8.53
2023-02-23T21:25:32.554Z,9.33
2023-02-23T21:28:01.828Z,10.47
2023-02-23T21:30:30.510Z,9.30
2023-02-23T21:33:00.405Z,10.37
2023-02-23T21:35:28.619Z,9.17
2023-02-23T21:37:57.774Z,10.43
2023-02-23T21:40:25.882Z,10.43
2023-02-23T21:43:01.464Z,10.43
2023-02-23T21:45:30.191Z,13.67
2023-02-23T21:47:59.721Z,12.23
2023-02-23T21:50:27.837Z,12.77
2023-02-23T21:52:57.784Z,11.73
2023-02-23T21:55:26.318Z,12.00
2023-02-23T21:57:54.822Z,11.23
2023-02-23T22:00:24.031Z,12.53
2023-02-23T22:02:52.266Z,11.90
2023-02-23T22:05:21.778Z,12.07
2023-02-23T22:07:50.757Z,12.43
2023-02-23T22:10:19.539Z,12.13
2023-02-23T22:12:47.627Z,12.83
2023-02-23T22:15:16.784Z,12.60
2023-02-23T22:17:45.099Z,12.73
2023-02-23T22:20:14.162Z,13.03
2023-02-23T22:22:43.756Z,14.03
2023-02-23T22:25:12.133Z,14.77
2023-02-23T22:27:42.704Z,13.90
2023-02-23T22:30:13.250Z,13.33
2023-02-23T22:32:42.544Z,13.67
2023-02-23T22:35:11.528Z,14.93
2023-02-23T22:37:39.939Z,16.90
2023-02-23T22:40:16.595Z,15.20
2023-02-23T22:42:48.190Z,15.03
2023-02-23T22:45:17.560Z,15.60
2023-02-23T22:47:45.861Z,15.20
2023-02-23T22:50:18.271Z,15.10
2023-02-23T22:52:47.153Z,15.17
2023-02-23T22:55:18.211Z,14.03
2023-02-23T22:57:47.647Z,14.67
2023-02-23T23:00:17.411Z,14.80
2023-02-23T23:02:45.608Z,14.47
2023-02-23T23:05:14.431Z,15.47
2023-02-23T23:07:42.906Z,15.60
2023-02-23T23:10:12.956Z,15.17
2023-02-23T23:12:42.503Z,15.57
2023-02-23T23:15:14.786Z,15.73
2023-02-23T23:17:47.992Z,15.00
2023-02-23T23:20:19.236Z,15.13
2023-02-23T23:22:49.800Z,15.63
2023-02-23T23:25:22.738Z,15.67
2023-02-23T23:27:55.686Z,15.43
2023-02-23T23:30:26.106Z,15.43
2023-02-23T23:32:54.560Z,15.87
2023-02-23T23:35:23.191Z,15.37
2023-02-23T23:37:51.843Z,15.87
2023-02-23T23:40:24.208Z,16.27
2023-02-23T23:42:55.366Z,16.40
2023-02-23T23:45:25.120Z,16.77
2023-02-23T23:47:53.397Z,16.53
2023-02-23T23:50:26.464Z,16.70
2023-02-23T23:52:55.349Z,16.53
2023-02-23T23:55:23.481Z,16.10
2023-02-23T23:57:53.133Z,16.47
